sensor_id;sensor_type;location;lat;lon;timestamp;P1;durP1;ratioP1;P2;durP2;ratioP2
20480;SDS011;10399;50.754;3.366;2023-06-26T00:04:23;9.50;;;4.00;;
20480;SDS011;10399;50.754;3.366;2023-06-26T00:06:51;8.57;;;3.70;;
20480;SDS011;10399;50.754;3.366;2023-06-26T00:09:18;8.35;;;4.05;;
20480;SDS011;10399;50.754;3.366;2023-06-26T00:11:45;9.80;;;4.25;;
20480;SDS011;10399;50.754;3.366;2023-06-26T00:14:12;10.65;;;3.63;;
20480;SDS011;10399;50.754;3.366;2023-06-26T00:16:39;11.75;;;4.10;;
20480;SDS011;10399;50.754;3.366;2023-06-26T00:19:09;7.05;;;3.72;;
20480;SDS011;10399;50.754;3.366;2023-06-26T00:21:36;7.38;;;3.38;;
20480;SDS011;10399;50.754;3.366;2023-06-26T00:24:03;10.10;;;4.82;;
20480;SDS011;10399;50.754;3.366;2023-06-26T00:26:30;11.20;;;3.88;;
20480;SDS011;10399;50.754;3.366;2023-06-26T00:28:57;15.25;;;4.25;;
20480;SDS011;10399;50.754;3.366;2023-06-26T00:31:24;9.05;;;3.47;;
20480;SDS011;10399;50.754;3.366;2023-06-26T00:33:51;11.13;;;3.95;;
20480;SDS011;10399;50.754;3.366;2023-06-26T00:36:18;10.13;;;3.80;;
20480;SDS011;10399;50.754;3.366;2023-06-26T00:38:45;9.43;;;3.75;;
20480;SDS011;10399;50.754;3.366;2023-06-26T00:41:12;10.05;;;3.83;;
20480;SDS011;10399;50.754;3.366;2023-06-26T00:43:39;13.38;;;3.70;;
20480;SDS011;10399;50.754;3.366;2023-06-26T00:46:12;16.77;;;4.25;;
20480;SDS011;10399;50.754;3.366;2023-06-26T00:48:41;14.10;;;4.35;;
20480;SDS011;10399;50.754;3.366;2023-06-26T00:51:11;10.77;;;4.07;;
20480;SDS011;10399;50.754;3.366;2023-06-26T00:53:39;12.15;;;4.07;;
20480;SDS011;10399;50.754;3.366;2023-06-26T00:56:06;13.35;;;4.35;;
20480;SDS011;10399;50.754;3.366;2023-06-26T00:58:34;14.23;;;3.75;;
20480;SDS011;10399;50.754;3.366;2023-06-26T01:01:01;11.18;;;4.38;;
20480;SDS011;10399;50.754;3.366;2023-06-26T01:03:29;15.00;;;4.97;;
20480;SDS011;10399;50.754;3.366;2023-06-26T01:05:56;14.57;;;4.35;;
20480;SDS011;10399;50.754;3.366;2023-06-26T01:08:25;13.13;;;4.45;;
20480;SDS011;10399;50.754;3.366;2023-06-26T01:10:53;11.77;;;4.25;;
20480;SDS011;10399;50.754;3.366;2023-06-26T01:13:21;10.95;;;3.88;;
20480;SDS011;10399;50.754;3.366;2023-06-26T01:15:49;16.05;;;4.38;;
20480;SDS011;10399;50.754;3.366;2023-06-26T01:18:16;15.25;;;4.65;;
20480;SDS011;10399;50.754;3.366;2023-06-26T01:20:44;14.32;;;4.30;;
20480;SDS011;10399;50.754;3.366;2023-06-26T01:23:14;11.05;;;3.88;;
20480;SDS011;10399;50.754;3.366;2023-06-26T01:28:26;12.23;;;4.10;;
20480;SDS011;10399;50.754;3.366;2023-06-26T01:30:55;16.17;;;4.20;;
20480;SDS011;10399;50.754;3.366;2023-06-26T01:33:22;16.30;;;4.93;;
20480;SDS011;10399;50.754;3.366;2023-06-26T01:35:50;18.95;;;6.13;;
20480;SDS011;10399;50.754;3.366;2023-06-26T01:38:18;16.92;;;5.45;;
20480;SDS011;10399;50.754;3.366;2023-06-26T01:40:46;20.55;;;5.95;;
20480;SDS011;10399;50.754;3.366;2023-06-26T01:43:15;17.77;;;6.18;;
20480;SDS011;10399;50.754;3.366;2023-06-26T01:45:50;19.40;;;5.32;;
20480;SDS011;10399;50.754;3.366;2023-06-26T01:48:22;19.73;;;6.85;;
20480;SDS011;10399;50.754;3.366;2023-06-26T01:50:52;18.77;;;5.75;;
20480;SDS011;10399;50.754;3.366;2023-06-26T01:53:21;18.45;;;5.82;;
20480;SDS011;10399;50.754;3.366;2023-06-26T01:55:53;19.42;;;5.80;;
20480;SDS011;10399;50.754;3.366;2023-06-26T01:58:27;19.10;;;5.85;;
20480;SDS011;10399;50.754;3.366;2023-06-26T02:00:55;15.90;;;4.72;;
20480;SDS011;10399;50.754;3.366;2023-06-26T02:03:23;18.20;;;5.57;;
20480;SDS011;10399;50.754;3.366;2023-06-26T02:05:51;22.85;;;5.57;;
20480;SDS011;10399;50.754;3.366;2023-06-26T02:08:18;16.98;;;5.13;;
20480;SDS011;10399;50.754;3.366;2023-06-26T02:10:45;20.23;;;4.97;;
20480;SDS011;10399;50.754;3.366;2023-06-26T02:13:12;21.65;;;4.80;;
20480;SDS011;10399;50.754;3.366;2023-06-26T02:15:39;13.70;;;4.88;;
20480;SDS011;10399;50.754;3.366;2023-06-26T02:18:06;17.88;;;4.93;;
20480;SDS011;10399;50.754;3.366;2023-06-26T02:20:33;23.00;;;4.70;;
20480;SDS011;10399;50.754;3.366;2023-06-26T02:23:00;21.58;;;5.30;;
20480;SDS011;10399;50.754;3.366;2023-06-26T02:25:27;16.30;;;5.15;;
20480;SDS011;10399;50.754;3.366;2023-06-26T02:27:54;19.92;;;4.93;;
20480;SDS011;10399;50.754;3.366;2023-06-26T02:30:21;20.48;;;5.10;;
20480;SDS011;10399;50.754;3.366;2023-06-26T02:32:48;20.35;;;5.03;;
20480;SDS011;10399;50.754;3.366;2023-06-26T02:35:15;21.77;;;5.80;;
20480;SDS011;10399;50.754;3.366;2023-06-26T02:37:42;18.23;;;5.00;;
20480;SDS011;10399;50.754;3.366;2023-06-26T02:40:09;17.90;;;4.15;;
20480;SDS011;10399;50.754;3.366;2023-06-26T02:42:36;19.13;;;5.10;;
20480;SDS011;10399;50.754;3.366;2023-06-26T02:45:04;21.02;;;5.40;;
20480;SDS011;10399;50.754;3.366;2023-06-26T02:47:32;18.25;;;4.88;;
20480;SDS011;10399;50.754;3.366;2023-06-26T02:49:59;22.48;;;4.70;;
20480;SDS011;10399;50.754;3.366;2023-06-26T02:52:26;20.20;;;4.80;;
20480;SDS011;10399;50.754;3.366;2023-06-26T02:54:55;22.55;;;4.80;;
20480;SDS011;10399;50.754;3.366;2023-06-26T02:57:22;21.67;;;4.85;;
20480;SDS011;10399;50.754;3.366;2023-06-26T02:59:49;18.88;;;4.50;;
20480;SDS011;10399;50.754;3.366;2023-06-26T03:02:16;18.75;;;5.53;;
20480;SDS011;10399;50.754;3.366;2023-06-26T03:04:43;21.67;;;5.35;;
20480;SDS011;10399;50.754;3.366;2023-06-26T03:07:10;23.77;;;4.95;;
20480;SDS011;10399;50.754;3.366;2023-06-26T03:09:37;17.58;;;4.20;;
20480;SDS011;10399;50.754;3.366;2023-06-26T03:12:04;20.27;;;4.57;;
20480;SDS011;10399;50.754;3.366;2023-06-26T03:14:31;20.92;;;4.60;;
20480;SDS011;10399;50.754;3.366;2023-06-26T03:16:58;18.30;;;4.50;;
20480;SDS011;10399;50.754;3.366;2023-06-26T03:19:29;22.92;;;4.60;;
20480;SDS011;10399;50.754;3.366;2023-06-26T03:21:57;20.40;;;3.90;;
20480;SDS011;10399;50.754;3.366;2023-06-26T03:24:24;21.45;;;4.40;;
20480;SDS011;10399;50.754;3.366;2023-06-26T03:26:51;20.30;;;4.25;;
20480;SDS011;10399;50.754;3.366;2023-06-26T03:29:18;21.45;;;3.90;;
20480;SDS011;10399;50.754;3.366;2023-06-26T03:31:45;16.98;;;4.00;;
20480;SDS011;10399;50.754;3.366;2023-06-26T03:34:12;23.38;;;4.47;;
20480;SDS011;10399;50.754;3.366;2023-06-26T03:36:40;18.42;;;3.83;;
20480;SDS011;10399;50.754;3.366;2023-06-26T03:39:07;18.10;;;3.67;;
20480;SDS011;10399;50.754;3.366;2023-06-26T03:41:34;16.70;;;4.45;;
20480;SDS011;10399;50.754;3.366;2023-06-26T03:44:01;14.68;;;3.72;;
20480;SDS011;10399;50.754;3.366;2023-06-26T03:46:29;17.05;;;4.20;;
20480;SDS011;10399;50.754;3.366;2023-06-26T03:48:56;21.75;;;4.30;;
20480;SDS011;10399;50.754;3.366;2023-06-26T03:51:23;17.10;;;3.60;;
20480;SDS011;10399;50.754;3.366;2023-06-26T03:53:50;17.55;;;3.78;;
20480;SDS011;10399;50.754;3.366;2023-06-26T03:56:17;17.10;;;3.63;;
20480;SDS011;10399;50.754;3.366;2023-06-26T03:58:45;21.95;;;3.83;;
20480;SDS011;10399;50.754;3.366;2023-06-26T04:01:12;13.20;;;3.28;;
20480;SDS011;10399;50.754;3.366;2023-06-26T04:03:39;16.65;;;3.03;;
20480;SDS011;10399;50.754;3.366;2023-06-26T04:06:06;15.32;;;3.22;;
20480;SDS011;10399;50.754;3.366;2023-06-26T04:08:33;15.07;;;3.40;;
20480;SDS011;10399;50.754;3.366;2023-06-26T04:11:00;18.35;;;3.50;;
20480;SDS011;10399;50.754;3.366;2023-06-26T04:13:27;12.32;;;3.50;;
20480;SDS011;10399;50.754;3.366;2023-06-26T04:15:54;14.27;;;3.40;;
20480;SDS011;10399;50.754;3.366;2023-06-26T04:18:21;14.23;;;3.45;;
20480;SDS011;10399;50.754;3.366;2023-06-26T04:21:10;14.90;;;2.45;;
20480;SDS011;10399;50.754;3.366;2023-06-26T04:23:40;15.27;;;3.05;;
20480;SDS011;10399;50.754;3.366;2023-06-26T04:26:07;12.10;;;3.00;;
20480;SDS011;10399;50.754;3.366;2023-06-26T04:28:35;12.45;;;3.28;;
20480;SDS011;10399;50.754;3.366;2023-06-26T04:31:02;14.80;;;3.10;;
20480;SDS011;10399;50.754;3.366;2023-06-26T04:33:30;12.90;;;2.85;;
20480;SDS011;10399;50.754;3.366;2023-06-26T04:35:57;11.40;;;2.63;;
20480;SDS011;10399;50.754;3.366;2023-06-26T04:38:24;12.05;;;3.13;;
20480;SDS011;10399;50.754;3.366;2023-06-26T04:40:51;18.10;;;3.22;;
20480;SDS011;10399;50.754;3.366;2023-06-26T04:43:18;12.13;;;3.00;;
20480;SDS011;10399;50.754;3.366;2023-06-26T04:45:45;10.10;;;2.25;;
20480;SDS011;10399;50.754;3.366;2023-06-26T04:48:13;10.80;;;2.63;;
20480;SDS011;10399;50.754;3.366;2023-06-26T04:50:40;13.23;;;2.67;;
20480;SDS011;10399;50.754;3.366;2023-06-26T04:53:07;13.98;;;2.40;;
20480;SDS011;10399;50.754;3.366;2023-06-26T04:55:34;12.90;;;2.13;;
20480;SDS011;10399;50.754;3.366;2023-06-26T04:58:05;8.68;;;2.33;;
20480;SDS011;10399;50.754;3.366;2023-06-26T05:00:32;10.43;;;2.13;;
20480;SDS011;10399;50.754;3.366;2023-06-26T05:03:03;9.40;;;2.45;;
20480;SDS011;10399;50.754;3.366;2023-06-26T05:05:31;10.63;;;2.30;;
20480;SDS011;10399;50.754;3.366;2023-06-26T05:07:58;7.57;;;2.47;;
20480;SDS011;10399;50.754;3.366;2023-06-26T05:10:25;12.15;;;2.10;;
20480;SDS011;10399;50.754;3.366;2023-06-26T05:12:52;9.98;;;2.05;;
20480;SDS011;10399;50.754;3.366;2023-06-26T05:15:19;6.55;;;1.80;;
20480;SDS011;10399;50.754;3.366;2023-06-26T05:17:46;12.18;;;2.33;;
20480;SDS011;10399;50.754;3.366;2023-06-26T05:20:13;7.75;;;2.13;;
20480;SDS011;10399;50.754;3.366;2023-06-26T05:22:41;9.68;;;2.45;;
20480;SDS011;10399;50.754;3.366;2023-06-26T05:25:09;6.00;;;1.90;;
20480;SDS011;10399;50.754;3.366;2023-06-26T05:27:37;9.32;;;1.92;;
20480;SDS011;10399;50.754;3.366;2023-06-26T05:30:05;7.70;;;2.15;;
20480;SDS011;10399;50.754;3.366;2023-06-26T05:32:34;7.75;;;2.20;;
20480;SDS011;10399;50.754;3.366;2023-06-26T05:35:04;8.32;;;2.25;;
20480;SDS011;10399;50.754;3.366;2023-06-26T05:37:33;5.00;;;2.00;;
20480;SDS011;10399;50.754;3.366;2023-06-26T05:40:01;5.57;;;1.50;;
20480;SDS011;10399;50.754;3.366;2023-06-26T05:42:30;13.57;;;1.85;;
20480;SDS011;10399;50.754;3.366;2023-06-26T05:44:57;8.25;;;1.77;;
20480;SDS011;10399;50.754;3.366;2023-06-26T05:47:24;15.23;;;2.05;;
20480;SDS011;10399;50.754;3.366;2023-06-26T05:49:52;4.47;;;1.40;;
20480;SDS011;10399;50.754;3.366;2023-06-26T05:52:19;7.55;;;1.98;;
20480;SDS011;10399;50.754;3.366;2023-06-26T05:54:46;7.85;;;1.83;;
20480;SDS011;10399;50.754;3.366;2023-06-26T05:57:14;7.85;;;1.70;;
20480;SDS011;10399;50.754;3.366;2023-06-26T05:59:42;6.15;;;1.50;;
20480;SDS011;10399;50.754;3.366;2023-06-26T06:02:11;5.05;;;1.77;;
20480;SDS011;10399;50.754;3.366;2023-06-26T06:04:39;8.18;;;1.73;;
20480;SDS011;10399;50.754;3.366;2023-06-26T06:07:06;6.28;;;2.13;;
20480;SDS011;10399;50.754;3.366;2023-06-26T06:09:34;5.03;;;1.58;;
20480;SDS011;10399;50.754;3.366;2023-06-26T06:12:01;4.60;;;1.42;;
20480;SDS011;10399;50.754;3.366;2023-06-26T06:14:30;6.50;;;1.65;;
20480;SDS011;10399;50.754;3.366;2023-06-26T06:16:57;6.55;;;1.58;;
20480;SDS011;10399;50.754;3.366;2023-06-26T06:19:24;6.35;;;1.50;;
20480;SDS011;10399;50.754;3.366;2023-06-26T06:21:51;6.63;;;1.52;;
20480;SDS011;10399;50.754;3.366;2023-06-26T06:24:19;12.55;;;1.98;;
20480;SDS011;10399;50.754;3.366;2023-06-26T06:26:46;5.32;;;1.73;;
20480;SDS011;10399;50.754;3.366;2023-06-26T06:29:13;5.70;;;1.70;;
20480;SDS011;10399;50.754;3.366;2023-06-26T06:31:40;7.65;;;1.75;;
20480;SDS011;10399;50.754;3.366;2023-06-26T06:34:08;4.45;;;1.85;;
20480;SDS011;10399;50.754;3.366;2023-06-26T06:36:35;6.80;;;2.05;;
20480;SDS011;10399;50.754;3.366;2023-06-26T06:39:02;10.07;;;1.95;;
20480;SDS011;10399;50.754;3.366;2023-06-26T06:41:29;5.75;;;1.48;;
20480;SDS011;10399;50.754;3.366;2023-06-26T06:43:57;9.57;;;2.00;;
20480;SDS011;10399;50.754;3.366;2023-06-26T06:46:24;8.07;;;1.52;;
20480;SDS011;10399;50.754;3.366;2023-06-26T06:48:53;6.28;;;1.88;;
20480;SDS011;10399;50.754;3.366;2023-06-26T06:51:20;10.00;;;2.55;;
20480;SDS011;10399;50.754;3.366;2023-06-26T06:53:47;5.95;;;1.60;;
20480;SDS011;10399;50.754;3.366;2023-06-26T06:56:14;6.45;;;1.58;;
20480;SDS011;10399;50.754;3.366;2023-06-26T06:58:41;4.75;;;1.67;;
20480;SDS011;10399;50.754;3.366;2023-06-26T07:01:09;5.15;;;1.75;;
20480;SDS011;10399;50.754;3.366;2023-06-26T07:03:36;8.20;;;1.70;;
20480;SDS011;10399;50.754;3.366;2023-06-26T07:06:03;5.68;;;1.65;;
20480;SDS011;10399;50.754;3.366;2023-06-26T07:08:30;8.75;;;1.20;;
20480;SDS011;10399;50.754;3.366;2023-06-26T07:10:57;6.00;;;1.65;;
20480;SDS011;10399;50.754;3.366;2023-06-26T07:13:24;6.00;;;1.80;;
20480;SDS011;10399;50.754;3.366;2023-06-26T07:15:52;5.90;;;1.70;;
20480;SDS011;10399;50.754;3.366;2023-06-26T07:18:19;5.85;;;2.17;;
20480;SDS011;10399;50.754;3.366;2023-06-26T07:20:46;7.18;;;1.92;;
20480;SDS011;10399;50.754;3.366;2023-06-26T07:23:13;10.05;;;2.28;;
20480;SDS011;10399;50.754;3.366;2023-06-26T07:25:40;6.80;;;2.05;;
20480;SDS011;10399;50.754;3.366;2023-06-26T07:28:10;5.50;;;1.65;;
20480;SDS011;10399;50.754;3.366;2023-06-26T07:30:38;8.93;;;1.95;;
20480;SDS011;10399;50.754;3.366;2023-06-26T07:33:06;11.35;;;2.00;;
20480;SDS011;10399;50.754;3.366;2023-06-26T07:35:33;4.18;;;1.38;;
20480;SDS011;10399;50.754;3.366;2023-06-26T07:38:00;8.18;;;1.75;;
20480;SDS011;10399;50.754;3.366;2023-06-26T07:40:27;7.43;;;2.00;;
20480;SDS011;10399;50.754;3.366;2023-06-26T07:42:54;9.00;;;1.58;;
20480;SDS011;10399;50.754;3.366;2023-06-26T07:45:21;6.60;;;1.70;;
20480;SDS011;10399;50.754;3.366;2023-06-26T07:47:52;10.13;;;1.85;;
20480;SDS011;10399;50.754;3.366;2023-06-26T07:50:19;7.35;;;1.70;;
20480;SDS011;10399;50.754;3.366;2023-06-26T07:52:49;4.97;;;1.67;;
20480;SDS011;10399;50.754;3.366;2023-06-26T07:55:16;5.00;;;1.50;;
20480;SDS011;10399;50.754;3.366;2023-06-26T07:57:43;4.60;;;1.40;;
20480;SDS011;10399;50.754;3.366;2023-06-26T08:00:12;5.00;;;1.20;;
20480;SDS011;10399;50.754;3.366;2023-06-26T08:02:39;6.35;;;1.65;;
20480;SDS011;10399;50.754;3.366;2023-06-26T08:05:08;8.50;;;1.88;;
20480;SDS011;10399;50.754;3.366;2023-06-26T08:07:36;4.88;;;1.45;;
20480;SDS011;10399;50.754;3.366;2023-06-26T08:10:04;3.85;;;1.42;;
20480;SDS011;10399;50.754;3.366;2023-06-26T08:12:31;11.07;;;1.80;;
20480;SDS011;10399;50.754;3.366;2023-06-26T08:14:59;5.65;;;1.58;;
20480;SDS011;10399;50.754;3.366;2023-06-26T08:17:28;8.43;;;1.42;;
20480;SDS011;10399;50.754;3.366;2023-06-26T08:19:55;5.03;;;1.48;;
20480;SDS011;10399;50.754;3.366;2023-06-26T08:22:23;4.50;;;1.30;;
20480;SDS011;10399;50.754;3.366;2023-06-26T08:24:50;4.10;;;1.48;;
20480;SDS011;10399;50.754;3.366;2023-06-26T08:27:17;7.30;;;1.73;;
20480;SDS011;10399;50.754;3.366;2023-06-26T08:29:44;7.30;;;1.45;;
20480;SDS011;10399;50.754;3.366;2023-06-26T08:32:12;5.03;;;1.58;;
20480;SDS011;10399;50.754;3.366;2023-06-26T08:34:39;5.38;;;1.35;;
20480;SDS011;10399;50.754;3.366;2023-06-26T08:37:06;4.15;;;1.48;;
20480;SDS011;10399;50.754;3.366;2023-06-26T08:39:35;5.35;;;1.52;;
20480;SDS011;10399;50.754;3.366;2023-06-26T08:42:02;5.32;;;2.00;;
20480;SDS011;10399;50.754;3.366;2023-06-26T08:44:30;7.10;;;1.23;;
20480;SDS011;10399;50.754;3.366;2023-06-26T08:46:59;4.70;;;1.88;;
20480;SDS011;10399;50.754;3.366;2023-06-26T08:52:11;6.28;;;1.50;;
20480;SDS011;10399;50.754;3.366;2023-06-26T08:54:45;6.60;;;1.67;;
20480;SDS011;10399;50.754;3.366;2023-06-26T08:57:14;9.50;;;1.30;;
20480;SDS011;10399;50.754;3.366;2023-06-26T08:59:45;5.53;;;1.60;;
20480;SDS011;10399;50.754;3.366;2023-06-26T09:02:14;6.43;;;1.25;;
20480;SDS011;10399;50.754;3.366;2023-06-26T09:04:42;5.68;;;1.30;;
20480;SDS011;10399;50.754;3.366;2023-06-26T09:07:09;7.38;;;1.73;;
20480;SDS011;10399;50.754;3.366;2023-06-26T09:09:37;6.93;;;1.60;;
20480;SDS011;10399;50.754;3.366;2023-06-26T09:12:04;8.20;;;1.50;;
20480;SDS011;10399;50.754;3.366;2023-06-26T09:14:32;3.53;;;1.52;;
20480;SDS011;10399;50.754;3.366;2023-06-26T09:16:59;2.65;;;1.10;;
20480;SDS011;10399;50.754;3.366;2023-06-26T09:19:27;8.05;;;1.27;;
20480;SDS011;10399;50.754;3.366;2023-06-26T09:21:54;4.68;;;1.55;;
20480;SDS011;10399;50.754;3.366;2023-06-26T09:24:22;8.35;;;1.60;;
20480;SDS011;10399;50.754;3.366;2023-06-26T09:26:49;4.13;;;1.58;;
20480;SDS011;10399;50.754;3.366;2023-06-26T09:29:18;3.55;;;1.38;;
20480;SDS011;10399;50.754;3.366;2023-06-26T09:31:47;2.70;;;1.13;;
20480;SDS011;10399;50.754;3.366;2023-06-26T09:34:14;4.95;;;1.40;;
20480;SDS011;10399;50.754;3.366;2023-06-26T09:36:42;6.53;;;1.52;;
20480;SDS011;10399;50.754;3.366;2023-06-26T09:39:13;6.82;;;1.35;;
20480;SDS011;10399;50.754;3.366;2023-06-26T09:41:42;7.70;;;1.63;;
20480;SDS011;10399;50.754;3.366;2023-06-26T09:44:12;5.00;;;1.60;;
20480;SDS011;10399;50.754;3.366;2023-06-26T09:46:40;10.30;;;1.33;;
20480;SDS011;10399;50.754;3.366;2023-06-26T09:49:11;7.57;;;1.80;;
20480;SDS011;10399;50.754;3.366;2023-06-26T09:51:39;5.10;;;1.50;;
20480;SDS011;10399;50.754;3.366;2023-06-26T09:54:08;7.03;;;1.65;;
20480;SDS011;10399;50.754;3.366;2023-06-26T09:56:36;4.95;;;1.58;;
20480;SDS011;10399;50.754;3.366;2023-06-26T09:59:04;4.97;;;1.30;;
20480;SDS011;10399;50.754;3.366;2023-06-26T10:01:32;6.15;;;1.95;;
20480;SDS011;10399;50.754;3.366;2023-06-26T10:04:00;7.63;;;1.50;;
20480;SDS011;10399;50.754;3.366;2023-06-26T10:06:33;8.82;;;1.75;;
20480;SDS011;10399;50.754;3.366;2023-06-26T10:09:03;6.53;;;1.30;;
20480;SDS011;10399;50.754;3.366;2023-06-26T10:11:40;8.85;;;1.73;;
20480;SDS011;10399;50.754;3.366;2023-06-26T10:14:12;6.30;;;1.50;;
20480;SDS011;10399;50.754;3.366;2023-06-26T10:16:44;6.45;;;1.50;;
20480;SDS011;10399;50.754;3.366;2023-06-26T10:19:13;4.65;;;1.50;;
20480;SDS011;10399;50.754;3.366;2023-06-26T10:21:42;7.10;;;1.50;;
20480;SDS011;10399;50.754;3.366;2023-06-26T10:24:10;5.80;;;1.60;;
20480;SDS011;10399;50.754;3.366;2023-06-26T10:26:41;5.10;;;1.20;;
20480;SDS011;10399;50.754;3.366;2023-06-26T10:29:11;4.60;;;1.63;;
20480;SDS011;10399;50.754;3.366;2023-06-26T10:31:42;4.90;;;1.42;;
20480;SDS011;10399;50.754;3.366;2023-06-26T10:34:13;5.40;;;1.25;;
20480;SDS011;10399;50.754;3.366;2023-06-26T10:36:40;5.97;;;1.40;;
20480;SDS011;10399;50.754;3.366;2023-06-26T10:39:08;5.05;;;1.67;;
20480;SDS011;10399;50.754;3.366;2023-06-26T10:41:36;7.50;;;1.90;;
20480;SDS011;10399;50.754;3.366;2023-06-26T10:44:18;3.58;;;1.60;;
20480;SDS011;10399;50.754;3.366;2023-06-26T10:46:54;3.40;;;1.40;;
20480;SDS011;10399;50.754;3.366;2023-06-26T10:49:25;4.30;;;1.70;;
20480;SDS011;10399;50.754;3.366;2023-06-26T10:51:56;9.30;;;1.90;;
20480;SDS011;10399;50.754;3.366;2023-06-26T10:54:29;7.53;;;1.00;;
20480;SDS011;10399;50.754;3.366;2023-06-26T10:56:58;4.82;;;1.30;;
20480;SDS011;10399;50.754;3.366;2023-06-26T10:59:26;5.80;;;1.42;;
20480;SDS011;10399;50.754;3.366;2023-06-26T11:02:08;3.83;;;1.15;;
20480;SDS011;10399;50.754;3.366;2023-06-26T11:07:24;4.25;;;1.17;;
20480;SDS011;10399;50.754;3.366;2023-06-26T11:12:39;7.43;;;1.38;;
20480;SDS011;10399;50.754;3.366;2023-06-26T11:15:12;3.53;;;1.20;;
20480;SDS011;10399;50.754;3.366;2023-06-26T11:17:43;4.50;;;1.50;;
20480;SDS011;10399;50.754;3.366;2023-06-26T11:20:12;3.78;;;1.20;;
20480;SDS011;10399;50.754;3.366;2023-06-26T11:22:44;2.40;;;1.20;;
20480;SDS011;10399;50.754;3.366;2023-06-26T11:25:11;5.25;;;1.55;;
20480;SDS011;10399;50.754;3.366;2023-06-26T11:27:41;4.78;;;1.20;;
20480;SDS011;10399;50.754;3.366;2023-06-26T11:30:10;2.75;;;1.15;;
20480;SDS011;10399;50.754;3.366;2023-06-26T11:32:38;6.03;;;1.55;;
20480;SDS011;10399;50.754;3.366;2023-06-26T11:35:06;4.00;;;1.20;;
20480;SDS011;10399;50.754;3.366;2023-06-26T11:37:34;6.03;;;1.50;;
20480;SDS011;10399;50.754;3.366;2023-06-26T11:40:15;5.95;;;1.27;;
20480;SDS011;10399;50.754;3.366;2023-06-26T11:42:46;5.32;;;1.20;;
20480;SDS011;10399;50.754;3.366;2023-06-26T11:45:13;4.63;;;1.40;;
20480;SDS011;10399;50.754;3.366;2023-06-26T11:47:41;4.28;;;1.40;;
20480;SDS011;10399;50.754;3.366;2023-06-26T11:50:14;3.78;;;1.10;;
20480;SDS011;10399;50.754;3.366;2023-06-26T11:52:43;7.53;;;1.30;;
20480;SDS011;10399;50.754;3.366;2023-06-26T11:55:11;4.65;;;1.20;;
20480;SDS011;10399;50.754;3.366;2023-06-26T11:57:38;3.15;;;1.30;;
20480;SDS011;10399;50.754;3.366;2023-06-26T12:00:12;6.97;;;1.30;;
20480;SDS011;10399;50.754;3.366;2023-06-26T12:02:41;8.98;;;1.52;;
20480;SDS011;10399;50.754;3.366;2023-06-26T12:05:09;5.55;;;1.55;;
20480;SDS011;10399;50.754;3.366;2023-06-26T12:07:37;3.50;;;1.00;;
20480;SDS011;10399;50.754;3.366;2023-06-26T12:10:05;4.18;;;1.10;;
20480;SDS011;10399;50.754;3.366;2023-06-26T12:12:32;2.78;;;0.95;;
20480;SDS011;10399;50.754;3.366;2023-06-26T12:15:00;5.40;;;1.00;;
20480;SDS011;10399;50.754;3.366;2023-06-26T12:17:27;3.88;;;1.15;;
20480;SDS011;10399;50.754;3.366;2023-06-26T12:19:56;2.95;;;1.27;;
20480;SDS011;10399;50.754;3.366;2023-06-26T12:22:23;8.57;;;1.00;;
20480;SDS011;10399;50.754;3.366;2023-06-26T12:24:50;4.50;;;1.30;;
20480;SDS011;10399;50.754;3.366;2023-06-26T12:27:17;3.88;;;1.02;;
20480;SDS011;10399;50.754;3.366;2023-06-26T12:29:50;4.53;;;1.13;;
20480;SDS011;10399;50.754;3.366;2023-06-26T12:32:25;3.70;;;1.20;;
20480;SDS011;10399;50.754;3.366;2023-06-26T12:34:53;2.65;;;1.10;;
20480;SDS011;10399;50.754;3.366;2023-06-26T12:37:22;2.97;;;1.30;;
20480;SDS011;10399;50.754;3.366;2023-06-26T12:39:50;4.38;;;0.98;;
20480;SDS011;10399;50.754;3.366;2023-06-26T12:42:23;6.20;;;1.15;;
20480;SDS011;10399;50.754;3.366;2023-06-26T12:44:54;3.42;;;1.10;;
20480;SDS011;10399;50.754;3.366;2023-06-26T12:47:24;2.60;;;1.13;;
20480;SDS011;10399;50.754;3.366;2023-06-26T12:49:53;3.63;;;1.10;;
20480;SDS011;10399;50.754;3.366;2023-06-26T12:52:21;3.03;;;1.17;;
20480;SDS011;10399;50.754;3.366;2023-06-26T12:54:52;5.32;;;1.02;;
20480;SDS011;10399;50.754;3.366;2023-06-26T12:57:21;3.55;;;1.05;;
20480;SDS011;10399;50.754;3.366;2023-06-26T12:59:48;2.58;;;1.20;;
20480;SDS011;10399;50.754;3.366;2023-06-26T13:02:15;4.88;;;1.17;;
20480;SDS011;10399;50.754;3.366;2023-06-26T13:04:43;2.42;;;0.98;;
20480;SDS011;10399;50.754;3.366;2023-06-26T13:07:11;7.57;;;1.30;;
20480;SDS011;10399;50.754;3.366;2023-06-26T13:09:39;5.20;;;1.30;;
20480;SDS011;10399;50.754;3.366;2023-06-26T13:12:07;3.50;;;1.35;;
20480;SDS011;10399;50.754;3.366;2023-06-26T13:14:35;3.80;;;1.48;;
20480;SDS011;10399;50.754;3.366;2023-06-26T13:17:02;5.20;;;1.30;;
20480;SDS011;10399;50.754;3.366;2023-06-26T13:19:33;3.65;;;1.20;;
20480;SDS011;10399;50.754;3.366;2023-06-26T13:22:01;4.22;;;1.42;;
20480;SDS011;10399;50.754;3.366;2023-06-26T13:24:28;5.07;;;1.30;;
20480;SDS011;10399;50.754;3.366;2023-06-26T13:26:55;4.88;;;1.20;;
20480;SDS011;10399;50.754;3.366;2023-06-26T13:29:22;4.18;;;1.25;;
20480;SDS011;10399;50.754;3.366;2023-06-26T13:31:49;3.90;;;0.90;;
20480;SDS011;10399;50.754;3.366;2023-06-26T13:34:22;4.68;;;1.27;;
20480;SDS011;10399;50.754;3.366;2023-06-26T13:36:50;3.47;;;0.93;;
20480;SDS011;10399;50.754;3.366;2023-06-26T13:39:17;4.53;;;1.00;;
20480;SDS011;10399;50.754;3.366;2023-06-26T13:41:45;4.93;;;1.17;;
20480;SDS011;10399;50.754;3.366;2023-06-26T13:44:13;4.32;;;1.45;;
20480;SDS011;10399;50.754;3.366;2023-06-26T13:46:52;5.82;;;1.20;;
20480;SDS011;10399;50.754;3.366;2023-06-26T13:49:20;2.45;;;1.48;;
20480;SDS011;10399;50.754;3.366;2023-06-26T13:51:47;7.28;;;1.20;;
20480;SDS011;10399;50.754;3.366;2023-06-26T13:54:17;5.22;;;1.30;;
20480;SDS011;10399;50.754;3.366;2023-06-26T13:56:44;4.32;;;1.42;;
20480;SDS011;10399;50.754;3.366;2023-06-26T13:59:12;4.03;;;1.30;;
20480;SDS011;10399;50.754;3.366;2023-06-26T14:01:39;4.45;;;1.10;;
20480;SDS011;10399;50.754;3.366;2023-06-26T14:04:09;4.25;;;1.20;;
20480;SDS011;10399;50.754;3.366;2023-06-26T14:06:37;5.00;;;1.15;;
20480;SDS011;10399;50.754;3.366;2023-06-26T14:09:04;6.50;;;1.13;;
20480;SDS011;10399;50.754;3.366;2023-06-26T14:11:31;3.50;;;1.15;;
20480;SDS011;10399;50.754;3.366;2023-06-26T14:13:59;5.72;;;1.23;;
20480;SDS011;10399;50.754;3.366;2023-06-26T14:16:26;4.28;;;1.30;;
20480;SDS011;10399;50.754;3.366;2023-06-26T14:18:55;3.72;;;1.20;;
20480;SDS011;10399;50.754;3.366;2023-06-26T14:21:22;3.90;;;1.13;;
20480;SDS011;10399;50.754;3.366;2023-06-26T14:23:50;4.60;;;0.93;;
20480;SDS011;10399;50.754;3.366;2023-06-26T14:26:17;6.07;;;1.25;;
20480;SDS011;10399;50.754;3.366;2023-06-26T14:28:44;3.25;;;1.02;;
20480;SDS011;10399;50.754;3.366;2023-06-26T14:31:11;6.43;;;1.17;;
20480;SDS011;10399;50.754;3.366;2023-06-26T14:33:38;8.35;;;1.52;;
20480;SDS011;10399;50.754;3.366;2023-06-26T14:36:06;6.82;;;1.20;;
20480;SDS011;10399;50.754;3.366;2023-06-26T14:38:33;5.78;;;1.33;;
20480;SDS011;10399;50.754;3.366;2023-06-26T14:41:00;5.68;;;1.20;;
20480;SDS011;10399;50.754;3.366;2023-06-26T14:43:28;5.82;;;1.25;;
20480;SDS011;10399;50.754;3.366;2023-06-26T14:45:56;7.22;;;1.20;;
20480;SDS011;10399;50.754;3.366;2023-06-26T14:48:23;2.88;;;1.13;;
20480;SDS011;10399;50.754;3.366;2023-06-26T14:50:50;6.05;;;1.38;;
20480;SDS011;10399;50.754;3.366;2023-06-26T14:53:17;5.25;;;1.23;;
20480;SDS011;10399;50.754;3.366;2023-06-26T14:55:45;3.95;;;1.20;;
20480;SDS011;10399;50.754;3.366;2023-06-26T14:58:12;3.47;;;1.20;;
20480;SDS011;10399;50.754;3.366;2023-06-26T15:00:39;5.32;;;1.40;;
20480;SDS011;10399;50.754;3.366;2023-06-26T15:03:06;4.25;;;1.30;;